sensor_id;sensor_type;location;lat;lon;timestamp;P1;durP1;ratioP1;P2;durP2;ratioP2
23567;SDS011;11962;50.838;4.430;2023-05-15T00:02:25;65.05;;;36.58;;
23567;SDS011;11962;50.838;4.430;2023-05-15T00:04:51;74.03;;;39.25;;
23567;SDS011;11962;50.838;4.430;2023-05-15T00:07:17;74.15;;;39.80;;
23567;SDS011;11962;50.838;4.430;2023-05-15T00:09:43;76.03;;;39.70;;
23567;SDS011;11962;50.838;4.430;2023-05-15T00:12:09;77.05;;;41.15;;
23567;SDS011;11962;50.838;4.430;2023-05-15T00:14:34;75.90;;;37.97;;
23567;SDS011;11962;50.838;4.430;2023-05-15T00:17:00;75.95;;;40.17;;
23567;SDS011;11962;50.838;4.430;2023-05-15T00:19:26;79.10;;;43.00;;
23567;SDS011;11962;50.838;4.430;2023-05-15T00:21:52;73.75;;;40.17;;
23567;SDS011;11962;50.838;4.430;2023-05-15T00:24:18;76.57;;;41.53;;
23567;SDS011;11962;50.838;4.430;2023-05-15T00:26:45;81.78;;;43.40;;
23567;SDS011;11962;50.838;4.430;2023-05-15T00:29:10;86.88;;;45.22;;
23567;SDS011;11962;50.838;4.430;2023-05-15T00:31:36;82.97;;;44.90;;
23567;SDS011;11962;50.838;4.430;2023-05-15T00:34:02;87.10;;;45.25;;
23567;SDS011;11962;50.838;4.430;2023-05-15T00:36:27;83.00;;;44.60;;
23567;SDS011;11962;50.838;4.430;2023-05-15T00:38:53;85.20;;;46.67;;
23567;SDS011;11962;50.838;4.430;2023-05-15T00:41:19;91.03;;;46.17;;
23567;SDS011;11962;50.838;4.430;2023-05-15T00:43:47;88.40;;;46.75;;
23567;SDS011;11962;50.838;4.430;2023-05-15T00:46:18;85.55;;;45.35;;
23567;SDS011;11962;50.838;4.430;2023-05-15T00:48:45;82.30;;;44.72;;
23567;SDS011;11962;50.838;4.430;2023-05-15T00:53:40;77.20;;;42.40;;
23567;SDS011;11962;50.838;4.430;2023-05-15T00:56:07;84.10;;;45.30;;
23567;SDS011;11962;50.838;4.430;2023-05-15T00:58:36;91.15;;;49.55;;
23567;SDS011;11962;50.838;4.430;2023-05-15T01:01:03;86.95;;;45.58;;
23567;SDS011;11962;50.838;4.430;2023-05-15T01:03:29;87.63;;;47.10;;
23567;SDS011;11962;50.838;4.430;2023-05-15T01:05:55;90.57;;;47.13;;
23567;SDS011;11962;50.838;4.430;2023-05-15T01:11:12;101.38;;;52.83;;
23567;SDS011;11962;50.838;4.430;2023-05-15T01:13:39;99.97;;;53.35;;
23567;SDS011;11962;50.838;4.430;2023-05-15T01:16:05;93.88;;;52.30;;
23567;SDS011;11962;50.838;4.430;2023-05-15T01:18:31;116.53;;;63.40;;
23567;SDS011;11962;50.838;4.430;2023-05-15T01:31:55;131.93;;;68.32;;
23567;SDS011;11962;50.838;4.430;2023-05-15T01:34:23;107.95;;;61.35;;
23567;SDS011;11962;50.838;4.430;2023-05-15T01:36:59;100.72;;;55.10;;
23567;SDS011;11962;50.838;4.430;2023-05-15T01:39:27;89.13;;;51.60;;
23567;SDS011;11962;50.838;4.430;2023-05-15T01:42:01;93.03;;;51.67;;
23567;SDS011;11962;50.838;4.430;2023-05-15T01:44:33;85.72;;;49.17;;
23567;SDS011;11962;50.838;4.430;2023-05-15T01:47:05;81.25;;;47.10;;
23567;SDS011;11962;50.838;4.430;2023-05-15T01:49:34;96.15;;;50.97;;
23567;SDS011;11962;50.838;4.430;2023-05-15T01:52:23;106.65;;;58.35;;
23567;SDS011;11962;50.838;4.430;2023-05-15T01:54:56;104.35;;;59.25;;
23567;SDS011;11962;50.838;4.430;2023-05-15T01:57:24;124.15;;;69.10;;
23567;SDS011;11962;50.838;4.430;2023-05-15T01:59:52;134.57;;;73.82;;
23567;SDS011;11962;50.838;4.430;2023-05-15T02:02:19;144.50;;;78.45;;
23567;SDS011;11962;50.838;4.430;2023-05-15T02:04:46;145.15;;;78.47;;
23567;SDS011;11962;50.838;4.430;2023-05-15T02:07:12;165.45;;;85.70;;
23567;SDS011;11962;50.838;4.430;2023-05-15T02:09:39;161.75;;;89.50;;
23567;SDS011;11962;50.838;4.430;2023-05-15T02:12:06;163.68;;;87.18;;
23567;SDS011;11962;50.838;4.430;2023-05-15T02:14:32;139.75;;;74.57;;
23567;SDS011;11962;50.838;4.430;2023-05-15T02:16:59;114.68;;;64.47;;
23567;SDS011;11962;50.838;4.430;2023-05-15T02:19:25;106.68;;;58.88;;
23567;SDS011;11962;50.838;4.430;2023-05-15T02:21:51;98.50;;;54.67;;
23567;SDS011;11962;50.838;4.430;2023-05-15T02:24:17;78.07;;;45.67;;
23567;SDS011;11962;50.838;4.430;2023-05-15T02:29:33;64.65;;;40.33;;
23567;SDS011;11962;50.838;4.430;2023-05-15T02:32:21;63.25;;;36.92;;
23567;SDS011;11962;50.838;4.430;2023-05-15T02:37:45;63.50;;;38.47;;
23567;SDS011;11962;50.838;4.430;2023-05-15T02:40:13;69.25;;;41.92;;
23567;SDS011;11962;50.838;4.430;2023-05-15T02:42:40;61.20;;;39.10;;
23567;SDS011;11962;50.838;4.430;2023-05-15T02:45:08;59.73;;;38.93;;
23567;SDS011;11962;50.838;4.430;2023-05-15T02:47:35;55.15;;;35.45;;
23567;SDS011;11962;50.838;4.430;2023-05-15T02:50:02;60.03;;;37.55;;
23567;SDS011;11962;50.838;4.430;2023-05-15T02:52:29;55.55;;;36.55;;
23567;SDS011;11962;50.838;4.430;2023-05-15T02:54:55;65.43;;;41.10;;
23567;SDS011;11962;50.838;4.430;2023-05-15T02:57:20;66.57;;;40.53;;
23567;SDS011;11962;50.838;4.430;2023-05-15T02:59:46;65.70;;;40.72;;
23567;SDS011;11962;50.838;4.430;2023-05-15T03:02:12;60.70;;;38.85;;
23567;SDS011;11962;50.838;4.430;2023-05-15T03:04:38;67.72;;;41.65;;
23567;SDS011;11962;50.838;4.430;2023-05-15T03:07:04;66.75;;;40.63;;
23567;SDS011;11962;50.838;4.430;2023-05-15T03:09:29;66.50;;;41.50;;
23567;SDS011;11962;50.838;4.430;2023-05-15T03:11:55;72.97;;;43.13;;
23567;SDS011;11962;50.838;4.430;2023-05-15T03:14:21;71.88;;;41.75;;
23567;SDS011;11962;50.838;4.430;2023-05-15T03:16:46;70.40;;;41.80;;
23567;SDS011;11962;50.838;4.430;2023-05-15T03:19:12;70.20;;;43.55;;
23567;SDS011;11962;50.838;4.430;2023-05-15T03:21:38;72.18;;;42.38;;
23567;SDS011;11962;50.838;4.430;2023-05-15T03:24:04;65.63;;;41.30;;
23567;SDS011;11962;50.838;4.430;2023-05-15T03:26:29;67.90;;;40.85;;
23567;SDS011;11962;50.838;4.430;2023-05-15T03:28:56;67.93;;;42.92;;
23567;SDS011;11962;50.838;4.430;2023-05-15T03:31:22;69.15;;;41.60;;
23567;SDS011;11962;50.838;4.430;2023-05-15T03:33:48;69.75;;;42.42;;
23567;SDS011;11962;50.838;4.430;2023-05-15T03:36:15;66.40;;;40.10;;
23567;SDS011;11962;50.838;4.430;2023-05-15T03:38:41;66.97;;;41.63;;
23567;SDS011;11962;50.838;4.430;2023-05-15T03:41:08;66.50;;;40.28;;
23567;SDS011;11962;50.838;4.430;2023-05-15T03:43:34;64.93;;;40.40;;
23567;SDS011;11962;50.838;4.430;2023-05-15T03:46:00;63.33;;;37.72;;
23567;SDS011;11962;50.838;4.430;2023-05-15T03:48:26;66.22;;;40.50;;
23567;SDS011;11962;50.838;4.430;2023-05-15T03:50:51;68.93;;;42.05;;
23567;SDS011;11962;50.838;4.430;2023-05-15T03:53:17;71.57;;;42.45;;
23567;SDS011;11962;50.838;4.430;2023-05-15T03:55:43;66.28;;;40.97;;
23567;SDS011;11962;50.838;4.430;2023-05-15T03:58:09;72.35;;;43.42;;
23567;SDS011;11962;50.838;4.430;2023-05-15T04:00:35;65.30;;;41.10;;
23567;SDS011;11962;50.838;4.430;2023-05-15T04:03:00;68.00;;;40.60;;
23567;SDS011;11962;50.838;4.430;2023-05-15T04:05:26;66.38;;;41.13;;
23567;SDS011;11962;50.838;4.430;2023-05-15T04:07:52;66.47;;;40.63;;
23567;SDS011;11962;50.838;4.430;2023-05-15T04:10:18;62.15;;;38.63;;
23567;SDS011;11962;50.838;4.430;2023-05-15T04:12:43;72.82;;;41.75;;
23567;SDS011;11962;50.838;4.430;2023-05-15T04:15:13;61.30;;;38.08;;
23567;SDS011;11962;50.838;4.430;2023-05-15T04:17:40;61.22;;;39.28;;
23567;SDS011;11962;50.838;4.430;2023-05-15T04:20:07;64.75;;;37.13;;
23567;SDS011;11962;50.838;4.430;2023-05-15T04:22:33;61.70;;;37.70;;
23567;SDS011;11962;50.838;4.430;2023-05-15T04:24:59;65.05;;;39.63;;
23567;SDS011;11962;50.838;4.430;2023-05-15T04:27:25;65.80;;;39.20;;
23567;SDS011;11962;50.838;4.430;2023-05-15T04:29:50;64.85;;;39.05;;
23567;SDS011;11962;50.838;4.430;2023-05-15T04:32:16;63.38;;;37.75;;
23567;SDS011;11962;50.838;4.430;2023-05-15T04:34:42;74.85;;;39.22;;
23567;SDS011;11962;50.838;4.430;2023-05-15T04:37:09;64.82;;;38.42;;
23567;SDS011;11962;50.838;4.430;2023-05-15T04:39:36;67.80;;;39.20;;
23567;SDS011;11962;50.838;4.430;2023-05-15T04:42:02;60.38;;;36.50;;
23567;SDS011;11962;50.838;4.430;2023-05-15T04:44:28;59.50;;;33.78;;
23567;SDS011;11962;50.838;4.430;2023-05-15T04:46:53;57.05;;;33.75;;
23567;SDS011;11962;50.838;4.430;2023-05-15T04:49:19;60.50;;;34.13;;
23567;SDS011;11962;50.838;4.430;2023-05-15T04:51:45;56.15;;;33.42;;
23567;SDS011;11962;50.838;4.430;2023-05-15T04:54:10;61.38;;;35.03;;
23567;SDS011;11962;50.838;4.430;2023-05-15T04:56:36;62.95;;;35.40;;
23567;SDS011;11962;50.838;4.430;2023-05-15T04:59:02;54.88;;;33.30;;
23567;SDS011;11962;50.838;4.430;2023-05-15T05:01:28;55.53;;;33.90;;
23567;SDS011;11962;50.838;4.430;2023-05-15T05:03:53;56.17;;;33.17;;
23567;SDS011;11962;50.838;4.430;2023-05-15T05:06:19;54.75;;;33.78;;
23567;SDS011;11962;50.838;4.430;2023-05-15T05:08:45;82.55;;;35.20;;
23567;SDS011;11962;50.838;4.430;2023-05-15T05:11:11;65.45;;;34.85;;
23567;SDS011;11962;50.838;4.430;2023-05-15T05:13:36;56.53;;;33.88;;
23567;SDS011;11962;50.838;4.430;2023-05-15T05:16:02;56.63;;;32.70;;
23567;SDS011;11962;50.838;4.430;2023-05-15T05:18:29;58.38;;;33.95;;
23567;SDS011;11962;50.838;4.430;2023-05-15T05:21:01;55.40;;;33.40;;
23567;SDS011;11962;50.838;4.430;2023-05-15T05:23:28;54.63;;;32.00;;
23567;SDS011;11962;50.838;4.430;2023-05-15T05:25:54;54.55;;;31.65;;
23567;SDS011;11962;50.838;4.430;2023-05-15T05:28:20;51.70;;;31.85;;
23567;SDS011;11962;50.838;4.430;2023-05-15T05:30:46;50.75;;;31.02;;
23567;SDS011;11962;50.838;4.430;2023-05-15T05:33:13;69.45;;;32.13;;
23567;SDS011;11962;50.838;4.430;2023-05-15T05:35:39;49.90;;;29.67;;
23567;SDS011;11962;50.838;4.430;2023-05-15T05:38:05;53.13;;;31.25;;
23567;SDS011;11962;50.838;4.430;2023-05-15T05:40:31;53.28;;;31.42;;
23567;SDS011;11962;50.838;4.430;2023-05-15T05:43:00;53.05;;;31.17;;
23567;SDS011;11962;50.838;4.430;2023-05-15T05:45:27;50.15;;;29.38;;
23567;SDS011;11962;50.838;4.430;2023-05-15T05:47:56;48.75;;;29.40;;
23567;SDS011;11962;50.838;4.430;2023-05-15T05:50:22;47.10;;;29.42;;
23567;SDS011;11962;50.838;4.430;2023-05-15T05:52:48;47.03;;;29.73;;
23567;SDS011;11962;50.838;4.430;2023-05-15T05:55:14;51.88;;;28.67;;
23567;SDS011;11962;50.838;4.430;2023-05-15T05:57:40;51.03;;;31.85;;
23567;SDS011;11962;50.838;4.430;2023-05-15T06:00:06;48.80;;;30.17;;
23567;SDS011;11962;50.838;4.430;2023-05-15T06:02:36;44.88;;;29.95;;
23567;SDS011;11962;50.838;4.430;2023-05-15T06:05:04;50.00;;;30.77;;
23567;SDS011;11962;50.838;4.430;2023-05-15T06:07:31;48.55;;;30.65;;
23567;SDS011;11962;50.838;4.430;2023-05-15T06:09:58;129.05;;;33.80;;
23567;SDS011;11962;50.838;4.430;2023-05-15T06:12:24;48.92;;;30.60;;
23567;SDS011;11962;50.838;4.430;2023-05-15T06:14:50;47.15;;;29.95;;
23567;SDS011;11962;50.838;4.430;2023-05-15T06:17:15;49.42;;;31.83;;
23567;SDS011;11962;50.838;4.430;2023-05-15T06:19:41;42.13;;;29.58;;
23567;SDS011;11962;50.838;4.430;2023-05-15T06:22:07;62.03;;;32.05;;
23567;SDS011;11962;50.838;4.430;2023-05-15T06:24:33;51.25;;;31.65;;
23567;SDS011;11962;50.838;4.430;2023-05-15T06:26:58;51.63;;;31.17;;
23567;SDS011;11962;50.838;4.430;2023-05-15T06:29:25;45.42;;;30.05;;
23567;SDS011;11962;50.838;4.430;2023-05-15T06:31:51;42.92;;;30.48;;
23567;SDS011;11962;50.838;4.430;2023-05-15T06:34:17;45.47;;;30.67;;
23567;SDS011;11962;50.838;4.430;2023-05-15T06:36:43;47.90;;;30.95;;
23567;SDS011;11962;50.838;4.430;2023-05-15T06:39:09;43.88;;;30.35;;
23567;SDS011;11962;50.838;4.430;2023-05-15T06:41:35;45.65;;;30.83;;
23567;SDS011;11962;50.838;4.430;2023-05-15T06:44:01;50.15;;;32.38;;
23567;SDS011;11962;50.838;4.430;2023-05-15T06:46:27;51.60;;;32.33;;
23567;SDS011;11962;50.838;4.430;2023-05-15T06:48:53;44.80;;;30.95;;
23567;SDS011;11962;50.838;4.430;2023-05-15T06:51:19;43.88;;;30.55;;
23567;SDS011;11962;50.838;4.430;2023-05-15T06:53:45;43.47;;;30.60;;
23567;SDS011;11962;50.838;4.430;2023-05-15T06:56:10;41.88;;;29.52;;
23567;SDS011;11962;50.838;4.430;2023-05-15T06:58:36;41.85;;;28.80;;
23567;SDS011;11962;50.838;4.430;2023-05-15T07:01:02;45.67;;;31.30;;
23567;SDS011;11962;50.838;4.430;2023-05-15T07:03:31;41.10;;;28.75;;
23567;SDS011;11962;50.838;4.430;2023-05-15T07:05:57;39.80;;;28.38;;
23567;SDS011;11962;50.838;4.430;2023-05-15T07:08:23;44.70;;;28.90;;
23567;SDS011;11962;50.838;4.430;2023-05-15T07:10:49;61.25;;;28.85;;
23567;SDS011;11962;50.838;4.430;2023-05-15T07:13:15;39.55;;;28.58;;
23567;SDS011;11962;50.838;4.430;2023-05-15T07:15:42;41.75;;;28.70;;
23567;SDS011;11962;50.838;4.430;2023-05-15T07:18:08;38.30;;;27.40;;
23567;SDS011;11962;50.838;4.430;2023-05-15T07:20:33;41.20;;;27.33;;
23567;SDS011;11962;50.838;4.430;2023-05-15T07:22:59;42.38;;;28.55;;
23567;SDS011;11962;50.838;4.430;2023-05-15T07:25:25;38.22;;;26.45;;
23567;SDS011;11962;50.838;4.430;2023-05-15T07:27:51;39.92;;;28.25;;
23567;SDS011;11962;50.838;4.430;2023-05-15T07:30:17;38.53;;;27.95;;
23567;SDS011;11962;50.838;4.430;2023-05-15T07:32:43;39.92;;;28.42;;
23567;SDS011;11962;50.838;4.430;2023-05-15T07:35:09;39.40;;;28.45;;
23567;SDS011;11962;50.838;4.430;2023-05-15T07:37:35;45.38;;;28.95;;
23567;SDS011;11962;50.838;4.430;2023-05-15T07:40:02;41.17;;;29.33;;
23567;SDS011;11962;50.838;4.430;2023-05-15T07:42:28;42.13;;;28.67;;
23567;SDS011;11962;50.838;4.430;2023-05-15T07:44:54;41.50;;;26.98;;
23567;SDS011;11962;50.838;4.430;2023-05-15T07:47:20;43.58;;;29.65;;
23567;SDS011;11962;50.838;4.430;2023-05-15T07:49:45;38.75;;;28.50;;
23567;SDS011;11962;50.838;4.430;2023-05-15T07:52:11;38.92;;;28.35;;
23567;SDS011;11962;50.838;4.430;2023-05-15T07:54:38;38.67;;;28.90;;
23567;SDS011;11962;50.838;4.430;2023-05-15T07:59:32;37.22;;;27.77;;
23567;SDS011;11962;50.838;4.430;2023-05-15T08:01:58;35.88;;;26.95;;
23567;SDS011;11962;50.838;4.430;2023-05-15T08:04:24;38.83;;;26.92;;
23567;SDS011;11962;50.838;4.430;2023-05-15T08:06:50;41.40;;;27.23;;
23567;SDS011;11962;50.838;4.430;2023-05-15T08:09:15;36.20;;;26.42;;
23567;SDS011;11962;50.838;4.430;2023-05-15T08:11:41;40.17;;;27.80;;
23567;SDS011;11962;50.838;4.430;2023-05-15T08:14:07;36.72;;;27.30;;
23567;SDS011;11962;50.838;4.430;2023-05-15T08:16:33;36.08;;;26.58;;
23567;SDS011;11962;50.838;4.430;2023-05-15T08:18:58;34.78;;;25.98;;
23567;SDS011;11962;50.838;4.430;2023-05-15T08:21:28;36.17;;;27.15;;
23567;SDS011;11962;50.838;4.430;2023-05-15T08:23:55;35.33;;;25.02;;
23567;SDS011;11962;50.838;4.430;2023-05-15T08:26:21;34.05;;;25.95;;
23567;SDS011;11962;50.838;4.430;2023-05-15T08:28:47;34.58;;;26.88;;
23567;SDS011;11962;50.838;4.430;2023-05-15T08:31:13;34.35;;;26.13;;
23567;SDS011;11962;50.838;4.430;2023-05-15T08:33:39;56.33;;;26.45;;
23567;SDS011;11962;50.838;4.430;2023-05-15T08:36:05;35.85;;;26.48;;
23567;SDS011;11962;50.838;4.430;2023-05-15T08:38:32;35.33;;;25.52;;
23567;SDS011;11962;50.838;4.430;2023-05-15T08:40:58;36.83;;;25.60;;
23567;SDS011;11962;50.838;4.430;2023-05-15T08:43:30;32.30;;;24.73;;
23567;SDS011;11962;50.838;4.430;2023-05-15T08:45:59;35.10;;;27.08;;
23567;SDS011;11962;50.838;4.430;2023-05-15T08:48:26;35.50;;;26.27;;
23567;SDS011;11962;50.838;4.430;2023-05-15T08:50:57;35.70;;;26.33;;
23567;SDS011;11962;50.838;4.430;2023-05-15T08:53:25;38.03;;;26.73;;
23567;SDS011;11962;50.838;4.430;2023-05-15T08:55:53;38.20;;;28.20;;
23567;SDS011;11962;50.838;4.430;2023-05-15T08:58:19;39.20;;;27.95;;
23567;SDS011;11962;50.838;4.430;2023-05-15T09:00:49;37.85;;;27.55;;
23567;SDS011;11962;50.838;4.430;2023-05-15T09:03:15;41.95;;;28.48;;
23567;SDS011;11962;50.838;4.430;2023-05-15T09:05:43;42.22;;;28.70;;
23567;SDS011;11962;50.838;4.430;2023-05-15T09:08:12;37.42;;;27.95;;
23567;SDS011;11962;50.838;4.430;2023-05-15T09:10:40;38.08;;;26.83;;
23567;SDS011;11962;50.838;4.430;2023-05-15T09:13:07;36.58;;;27.98;;
23567;SDS011;11962;50.838;4.430;2023-05-15T09:15:34;34.65;;;27.13;;
23567;SDS011;11962;50.838;4.430;2023-05-15T09:18:01;34.85;;;26.98;;
23567;SDS011;11962;50.838;4.430;2023-05-15T09:20:29;49.45;;;27.70;;
23567;SDS011;11962;50.838;4.430;2023-05-15T09:23:00;35.03;;;26.40;;
23567;SDS011;11962;50.838;4.430;2023-05-15T09:25:37;106.43;;;31.10;;
23567;SDS011;11962;50.838;4.430;2023-05-15T09:28:05;38.80;;;25.83;;
23567;SDS011;11962;50.838;4.430;2023-05-15T09:30:32;36.17;;;25.92;;
23567;SDS011;11962;50.838;4.430;2023-05-15T09:33:01;32.20;;;24.25;;
23567;SDS011;11962;50.838;4.430;2023-05-15T09:35:31;32.60;;;23.70;;
23567;SDS011;11962;50.838;4.430;2023-05-15T09:37:58;33.72;;;24.95;;
23567;SDS011;11962;50.838;4.430;2023-05-15T09:40:27;32.05;;;24.83;;
23567;SDS011;11962;50.838;4.430;2023-05-15T09:42:54;35.40;;;25.38;;
23567;SDS011;11962;50.838;4.430;2023-05-15T09:45:21;35.80;;;24.75;;
23567;SDS011;11962;50.838;4.430;2023-05-15T09:47:49;78.35;;;28.00;;
23567;SDS011;11962;50.838;4.430;2023-05-15T09:50:22;30.75;;;24.45;;
23567;SDS011;11962;50.838;4.430;2023-05-15T09:52:57;31.42;;;23.25;;
23567;SDS011;11962;50.838;4.430;2023-05-15T09:55:23;31.93;;;25.23;;
23567;SDS011;11962;50.838;4.430;2023-05-15T09:58:05;37.10;;;24.67;;
23567;SDS011;11962;50.838;4.430;2023-05-15T10:00:32;36.25;;;25.23;;
23567;SDS011;11962;50.838;4.430;2023-05-15T10:03:00;35.97;;;24.48;;
23567;SDS011;11962;50.838;4.430;2023-05-15T10:05:27;31.50;;;22.98;;
23567;SDS011;11962;50.838;4.430;2023-05-15T10:07:53;31.25;;;23.23;;
23567;SDS011;11962;50.838;4.430;2023-05-15T10:10:23;32.95;;;22.40;;
23567;SDS011;11962;50.838;4.430;2023-05-15T10:12:49;31.25;;;21.95;;
23567;SDS011;11962;50.838;4.430;2023-05-15T10:15:16;30.50;;;22.92;;
23567;SDS011;11962;50.838;4.430;2023-05-15T10:17:43;36.00;;;21.35;;
23567;SDS011;11962;50.838;4.430;2023-05-15T10:20:11;37.25;;;22.48;;
23567;SDS011;11962;50.838;4.430;2023-05-15T10:22:40;41.00;;;23.33;;
23567;SDS011;11962;50.838;4.430;2023-05-15T10:27:37;33.58;;;22.83;;
23567;SDS011;11962;50.838;4.430;2023-05-15T10:30:06;31.60;;;22.67;;
23567;SDS011;11962;50.838;4.430;2023-05-15T10:32:33;30.30;;;21.50;;
23567;SDS011;11962;50.838;4.430;2023-05-15T10:35:00;32.65;;;22.75;;
23567;SDS011;11962;50.838;4.430;2023-05-15T10:37:27;33.65;;;23.40;;
23567;SDS011;11962;50.838;4.430;2023-05-15T10:39:54;33.10;;;23.15;;
23567;SDS011;11962;50.838;4.430;2023-05-15T10:42:22;36.50;;;23.92;;
23567;SDS011;11962;50.838;4.430;2023-05-15T10:44:51;34.63;;;23.58;;
23567;SDS011;11962;50.838;4.430;2023-05-15T10:47:18;36.80;;;23.25;;
23567;SDS011;11962;50.838;4.430;2023-05-15T10:49:44;34.78;;;23.42;;
23567;SDS011;11962;50.838;4.430;2023-05-15T10:52:10;95.25;;;26.40;;
23567;SDS011;11962;50.838;4.430;2023-05-15T10:54:36;35.88;;;23.50;;
23567;SDS011;11962;50.838;4.430;2023-05-15T10:57:02;36.15;;;23.38;;
23567;SDS011;11962;50.838;4.430;2023-05-15T10:59:31;33.60;;;22.75;;
23567;SDS011;11962;50.838;4.430;2023-05-15T11:04:44;41.13;;;25.02;;
23567;SDS011;11962;50.838;4.430;2023-05-15T11:07:12;36.83;;;23.75;;
23567;SDS011;11962;50.838;4.430;2023-05-15T11:09:39;38.42;;;24.58;;
23567;SDS011;11962;50.838;4.430;2023-05-15T11:12:06;38.70;;;25.52;;
23567;SDS011;11962;50.838;4.430;2023-05-15T11:14:37;46.08;;;26.25;;
23567;SDS011;11962;50.838;4.430;2023-05-15T11:17:10;45.22;;;27.13;;
23567;SDS011;11962;50.838;4.430;2023-05-15T11:24:48;55.13;;;29.90;;
23567;SDS011;11962;50.838;4.430;2023-05-15T11:27:24;57.42;;;29.38;;
23567;SDS011;11962;50.838;4.430;2023-05-15T11:30:17;55.17;;;31.67;;
23567;SDS011;11962;50.838;4.430;2023-05-15T11:33:09;55.08;;;30.98;;
23567;SDS011;11962;50.838;4.430;2023-05-15T11:35:38;61.38;;;33.78;;
23567;SDS011;11962;50.838;4.430;2023-05-15T11:38:14;66.38;;;34.45;;
23567;SDS011;11962;50.838;4.430;2023-05-15T11:40:47;65.90;;;35.03;;
23567;SDS011;11962;50.838;4.430;2023-05-15T11:43:23;63.58;;;34.13;;
23567;SDS011;11962;50.838;4.430;2023-05-15T11:45:51;68.30;;;34.17;;
23567;SDS011;11962;50.838;4.430;2023-05-15T11:48:22;62.90;;;31.55;;
23567;SDS011;11962;50.838;4.430;2023-05-15T11:50:49;60.25;;;32.50;;
23567;SDS011;11962;50.838;4.430;2023-05-15T11:53:18;58.42;;;31.65;;
23567;SDS011;11962;50.838;4.430;2023-05-15T11:55:44;55.95;;;29.90;;
23567;SDS011;11962;50.838;4.430;2023-05-15T11:58:11;57.70;;;29.83;;
23567;SDS011;11962;50.838;4.430;2023-05-15T12:00:41;64.97;;;32.75;;
23567;SDS011;11962;50.838;4.430;2023-05-15T12:03:15;68.32;;;33.80;;
23567;SDS011;11962;50.838;4.430;2023-05-15T12:05:46;73.03;;;36.33;;
23567;SDS011;11962;50.838;4.430;2023-05-15T12:08:12;73.03;;;37.17;;
23567;SDS011;11962;50.838;4.430;2023-05-15T12:10:44;81.43;;;40.50;;
23567;SDS011;11962;50.838;4.430;2023-05-15T12:13:10;83.85;;;41.08;;
23567;SDS011;11962;50.838;4.430;2023-05-15T12:15:37;91.28;;;43.53;;
23567;SDS011;11962;50.838;4.430;2023-05-15T12:18:05;76.95;;;38.90;;
23567;SDS011;11962;50.838;4.430;2023-05-15T12:20:33;74.90;;;37.15;;
23567;SDS011;11962;50.838;4.430;2023-05-15T12:23:00;84.93;;;40.20;;
23567;SDS011;11962;50.838;4.430;2023-05-15T12:25:34;69.07;;;36.95;;
23567;SDS011;11962;50.838;4.430;2023-05-15T12:28:01;61.63;;;34.85;;
23567;SDS011;11962;50.838;4.430;2023-05-15T12:30:32;67.57;;;36.80;;
23567;SDS011;11962;50.838;4.430;2023-05-15T12:32:59;60.10;;;33.90;;
23567;SDS011;11962;50.838;4.430;2023-05-15T12:35:33;53.53;;;32.35;;
23567;SDS011;11962;50.838;4.430;2023-05-15T12:38:04;56.90;;;30.88;;
23567;SDS011;11962;50.838;4.430;2023-05-15T12:40:34;61.97;;;32.90;;
23567;SDS011;11962;50.838;4.430;2023-05-15T12:43:04;64.53;;;33.38;;
23567;SDS011;11962;50.838;4.430;2023-05-15T12:45:31;63.22;;;32.55;;
23567;SDS011;11962;50.838;4.430;2023-05-15T12:47:59;46.00;;;26.27;;
23567;SDS011;11962;50.838;4.430;2023-05-15T12:50:25;45.03;;;24.75;;
23567;SDS011;11962;50.838;4.430;2023-05-15T12:52:58;40.85;;;24.60;;
23567;SDS011;11962;50.838;4.430;2023-05-15T12:55:26;43.60;;;24.45;;
23567;SDS011;11962;50.838;4.430;2023-05-15T12:58:03;39.58;;;23.15;;
23567;SDS011;11962;50.838;4.430;2023-05-15T13:00:34;43.28;;;23.75;;
23567;SDS011;11962;50.838;4.430;2023-05-15T13:03:01;37.50;;;22.38;;
23567;SDS011;11962;50.838;4.430;2023-05-15T13:05:30;35.25;;;21.05;;
23567;SDS011;11962;50.838;4.430;2023-05-15T13:07:58;30.50;;;18.88;;
23567;SDS011;11962;50.838;4.430;2023-05-15T13:10:25;23.08;;;14.95;;
23567;SDS011;11962;50.838;4.430;2023-05-15T13:12:51;19.83;;;13.18;;
23567;SDS011;11962;50.838;4.430;2023-05-15T13:18:01;18.63;;;12.10;;
23567;SDS011;11962;50.838;4.430;2023-05-15T13:20:28;17.20;;;11.15;;
23567;SDS011;11962;50.838;4.430;2023-05-15T13:23:02;18.95;;;9.45;;
23567;SDS011;11962;50.838;4.430;2023-05-15T13:25:27;13.82;;;7.95;;
23567;SDS011;11962;50.838;4.430;2023-05-15T13:27:57;9.45;;;6.05;;
23567;SDS011;11962;50.838;4.430;2023-05-15T13:30:24;8.73;;;4.40;;
23567;SDS011;11962;50.838;4.430;2023-05-15T13:32:53;5.53;;;3.30;;
23567;SDS011;11962;50.838;4.430;2023-05-15T13:35:19;4.20;;;3.00;;
23567;SDS011;11962;50.838;4.430;2023-05-15T13:37:45;4.15;;;2.63;;
23567;SDS011;11962;50.838;4.430;2023-05-15T13:40:11;3.03;;;1.90;;
23567;SDS011;11962;50.838;4.430;2023-05-15T13:42:37;4.40;;;2.38;;
23567;SDS011;11962;50.838;4.430;2023-05-15T13:45:07;2.95;;;1.95;;
23567;SDS011;11962;50.838;4.430;2023-05-15T13:47:33;4.50;;;2.20;;
23567;SDS011;11962;50.838;4.430;2023-05-15T13:50:00;2.70;;;1.85;;
23567;SDS011;11962;50.838;4.430;2023-05-15T13:52:28;2.97;;;1.90;;
23567;SDS011;11962;50.838;4.430;2023-05-15T13:54:54;3.83;;;1.80;;
23567;SDS011;11962;50.838;4.430;2023-05-15T13:57:20;4.07;;;1.80;;
23567;SDS011;11962;50.838;4.430;2023-05-15T13:59:46;4.95;;;1.70;;
23567;SDS011;11962;50.838;4.430;2023-05-15T14:02:12;4.43;;;1.80;;
23567;SDS011;11962;50.838;4.430;2023-05-15T14:04:38;5.95;;;1.88;;
23567;SDS011;11962;50.838;4.430;2023-05-15T14:07:04;4.85;;;1.60;;
23567;SDS011;11962;50.838;4.430;2023-05-15T14:09:30;6.65;;;1.92;;
23567;SDS011;11962;50.838;4.430;2023-05-15T14:11:56;3.67;;;1.73;;
23567;SDS011;11962;50.838;4.430;2023-05-15T14:14:21;3.70;;;1.77;;
23567;SDS011;11962;50.838;4.430;2023-05-15T14:16:47;5.47;;;2.25;;
23567;SDS011;11962;50.838;4.430;2023-05-15T14:19:13;6.28;;;2.13;;
23567;SDS011;11962;50.838;4.430;2023-05-15T14:21:39;6.65;;;2.13;;
23567;SDS011;11962;50.838;4.430;2023-05-15T14:24:05;5.30;;;1.90;;
23567;SDS011;11962;50.838;4.430;2023-05-15T14:26:32;8.52;;;2.17;;
23567;SDS011;11962;50.838;4.430;2023-05-15T14:28:57;8.18;;;3.10;;
23567;SDS011;11962;50.838;4.430;2023-05-15T14:31:23;8.70;;;3.00;;
23567;SDS011;11962;50.838;4.430;2023-05-15T14:33:49;10.15;;;3.30;;
23567;SDS011;11962;50.838;4.430;2023-05-15T14:36:16;9.02;;;3.45;;
23567;SDS011;11962;50.838;4.430;2023-05-15T14:38:41;8.30;;;3.28;;
23567;SDS011;11962;50.838;4.430;2023-05-15T14:41:12;12.75;;;4.07;;
23567;SDS011;11962;50.838;4.430;2023-05-15T14:43:38;9.20;;;4.03;;
23567;SDS011;11962;50.838;4.430;2023-05-15T14:46:04;9.15;;;3.65;;
23567;SDS011;11962;50.838;4.430;2023-05-15T14:48:29;8.20;;;3.38;;
23567;SDS011;11962;50.838;4.430;2023-05-15T14:50:59;6.55;;;2.97;;
23567;SDS011;11962;50.838;4.430;2023-05-15T14:53:25;8.13;;;3.55;;
23567;SDS011;11962;50.838;4.430;2023-05-15T14:55:53;7.95;;;3.20;;
23567;SDS011;11962;50.838;4.430;2023-05-15T14:58:19;8.17;;;3.37;;
23567;SDS011;11962;50.838;4.430;2023-05-15T15:00:44;7.90;;;3.15;;
23567;SDS011;11962;50.838;4.430;2023-05-15T15:03:12;10.07;;;3.45;;